Main page
Satellite images 15-day forecastsClimateMarine weather Cyclones Lightning AirportsFAQ Newsletter About
Weather : Europe Africa North America South America Asia Australia-Oceania Others
Languages Contact

London-Southend, England

latitude: 51-34N, longitude: 000-42E, elevation: 15 m


METAR: EGMC 222120Z 23017KT 9999 FEW028 11/06 Q1017
TAF: EGMC 222003Z 2221/2306 24018KT 9999 SCT030 TEMPO 2221/2306 26020G30KT

Time: 21:56 (21:56 UTC)

Current weather observation

The report was made 36 minutes ago, at 21:20 UTC
Wind 17 kt from the Southwest
Temperature 11°C
Humidity 71%
Pressure 1017 hPa
Visibility 10 km or more
Few clouds at a height of 2800 ft

Change units

Forecast

The report was made 1 hour and 53 minutes ago, at 20:03 UTC
Forecast valid from 22 at 21 UTC to 23 at 06 UTC
Wind 18 kt from the West/Southwest
Visibility 10 km or more
Scattered clouds at a height of 3000 ft
Temporary
from 22 at 21 UTC to 23 at 06 UTC
Wind 20 kt from the West with gusts up to 30 kt
The information on this site is subject to a disclaimer
Weather : Europe Africa North America South America Asia Australia-Oceania Others
Satellite images 15-day forecastsClimateMarine weather Cyclones Lightning AirportsFAQ Languages Contact Newsletter About